Time;durP1;ratioP1;P1;durP2;ratioP2;P2;SDS_P1;SDS_P2;PMS_P1;PMS_P2;Temp;Humidity;BMP_temperature;BMP_pressure;BME280_temperature;BME280_humidity;BME280_pressure;Samples;Min_cycle;Max_cycle;Signal;HPM_P1;HPM_P2
2022/07/30 00:01:05;;;;;;;23.38;13.75;;;25.30;99.90;;;;;;5071421;28;20106;-65
2022/07/30 00:03:32;;;;;;;23.75;14.35;;;25.10;99.90;;;;;;5072887;28;20515;-65
2022/07/30 00:05:58;;;;;;;18.98;12.43;;;25.10;99.90;;;;;;5072554;28;20384;-65
2022/07/30 00:08:24;;;;;;;22.80;12.85;;;25.00;99.90;;;;;;5071535;28;20043;-64
2022/07/30 00:10:51;;;;;;;21.38;12.45;;;25.10;99.90;;;;;;5072758;28;20036;-65
2022/07/30 00:13:17;;;;;;;15.75;12.00;;;25.20;99.90;;;;;;5072797;28;20060;-65
2022/07/30 00:15:43;;;;;;;18.60;12.95;;;25.30;99.90;;;;;;5072755;28;20063;-65
2022/07/30 00:18:09;;;;;;;20.13;12.23;;;25.40;99.90;;;;;;5071478;28;20460;-66
2022/07/30 00:20:34;;;;;;;15.15;12.00;;;25.50;99.90;;;;;;5071074;28;20365;-65
2022/07/30 00:23:04;;;;;;;18.25;11.93;;;25.50;99.90;;;;;;5072927;28;20110;-65
2022/07/30 00:25:31;;;;;;;21.23;12.25;;;25.50;99.90;;;;;;5072650;28;20354;-64
2022/07/30 00:27:57;;;;;;;16.13;12.77;;;25.50;99.90;;;;;;5072668;28;20065;-64
2022/07/30 00:30:23;;;;;;;25.73;12.20;;;25.50;99.90;;;;;;5072496;28;20036;-65
2022/07/30 00:32:49;;;;;;;17.10;13.00;;;25.50;99.90;;;;;;5071505;28;20354;-65
2022/07/30 00:35:15;;;;;;;18.95;11.65;;;25.50;99.90;;;;;;5072530;28;20024;-66
2022/07/30 00:37:41;;;;;;;16.67;11.57;;;25.50;99.90;;;;;;5075293;28;20028;-66
2022/07/30 00:40:08;;;;;;;16.00;12.68;;;25.50;99.90;;;;;;5076273;28;20099;-66
2022/07/30 00:42:45;;;;;;;15.88;12.38;;;25.50;99.90;;;;;;5076535;28;20527;-66
2022/07/30 00:45:12;;;;;;;27.20;13.98;;;25.10;99.90;;;;;;5074882;28;20025;-66
2022/07/30 00:47:38;;;;;;;18.48;11.60;;;25.00;99.90;;;;;;5076459;28;20032;-64
2022/07/30 00:50:07;;;;;;;18.98;12.30;;;25.20;99.90;;;;;;5076174;28;20040;-64
2022/07/30 00:52:35;;;;;;;17.70;12.23;;;25.30;99.90;;;;;;5074713;28;20384;-64
2022/07/30 00:55:01;;;;;;;23.85;12.77;;;25.40;99.90;;;;;;5075985;28;20020;-64
2022/07/30 00:57:27;;;;;;;15.40;12.63;;;25.30;99.90;;;;;;5075977;28;20024;-64
2022/07/30 00:59:53;;;;;;;26.08;12.63;;;25.40;99.90;;;;;;5075801;28;20102;-65
2022/07/30 01:02:19;;;;;;;21.02;13.07;;;25.40;99.90;;;;;;5074602;28;20029;-65
2022/07/30 01:04:45;;;;;;;20.45;13.48;;;25.40;99.90;;;;;;5075830;28;20024;-64
2022/07/30 01:07:11;;;;;;;24.55;14.25;;;25.00;99.90;;;;;;5075859;28;20067;-65
2022/07/30 01:09:38;;;;;;;24.20;13.50;;;;;;;;;;5074373;28;20068;-65
2022/07/30 01:12:08;;;;;;;17.65;11.85;;;;;;;;;;5074161;28;20054;-65
2022/07/30 01:14:35;;;;;;;18.23;12.90;;;24.80;99.90;;;;;;5074402;28;20469;-65
2022/07/30 01:17:02;;;;;;;16.30;12.30;;;24.80;99.90;;;;;;5075678;28;20241;-65
2022/07/30 01:19:51;;;;;;;24.42;13.05;;;24.90;99.90;;;;;;5075570;28;20029;-64
2022/07/30 01:22:17;;;;;;;19.00;13.60;;;;;;;;;;5075587;28;20025;-64
2022/07/30 01:24:46;;;;;;;23.98;12.77;;;;;;;;;;5075491;28;20020;-65
2022/07/30 01:27:14;;;;;;;17.02;12.50;;;;;;;;;;5074192;28;20023;-64
2022/07/30 01:29:42;;;;;;;16.38;11.55;;;;;;;;;;5075376;28;20058;-64
2022/07/30 01:32:08;;;;;;;16.60;12.13;;;;;;;;;;5075324;28;20040;-65
2022/07/30 01:34:35;;;;;;;20.58;12.27;;;;;;;;;;5075281;28;20089;-64
2022/07/30 01:37:02;;;;;;;18.48;12.20;;;;;;;;;;5073942;28;20024;-64
2022/07/30 01:39:29;;;;;;;19.05;12.27;;;;;;;;;;5075509;28;20091;-65
2022/07/30 01:41:56;;;;;;;13.55;11.45;;;24.70;99.90;;;;;;5075145;28;20063;-65
2022/07/30 01:44:25;;;;;;;23.40;12.32;;;25.00;99.90;;;;;;5075421;28;20028;-66
2022/07/30 01:46:53;;;;;;;12.95;11.30;;;24.90;99.90;;;;;;5075085;28;20486;-65
2022/07/30 01:49:22;;;;;;;17.52;11.60;;;24.80;99.90;;;;;;5074957;28;20076;-64
2022/07/30 01:51:50;;;;;;;19.70;12.38;;;24.90;99.90;;;;;;5074966;28;20028;-64
2022/07/30 01:54:18;;;;;;;18.73;12.43;;;24.90;99.90;;;;;;5074949;28;20100;-64
2022/07/30 01:56:46;;;;;;;16.25;11.73;;;24.90;99.90;;;;;;5074618;28;20028;-64
2022/07/30 01:59:15;;;;;;;15.80;11.32;;;25.00;99.90;;;;;;5074917;28;20028;-66
2022/07/30 02:01:41;;;;;;;15.25;11.35;;;25.10;99.90;;;;;;5073281;28;20048;-64
2022/07/30 02:04:07;;;;;;;16.77;11.30;;;25.10;99.90;;;;;;5074763;28;20025;-65
2022/07/30 02:06:43;;;;;;;20.45;12.07;;;25.00;99.90;;;;;;5074670;28;20058;-65
2022/07/30 02:09:10;;;;;;;23.10;11.90;;;25.00;99.90;;;;;;5074662;28;20039;-65
2022/07/30 02:14:32;;;;;;;18.65;12.82;;;25.00;99.90;;;;;;5074343;28;20040;-64
2022/07/30 02:17:01;;;;;;;17.83;12.00;;;24.90;99.90;;;;;;5074543;28;20024;-64
2022/07/30 02:19:38;;;;;;;19.08;12.68;;;25.00;99.90;;;;;;5074446;28;20051;-65
2022/07/30 02:22:08;;;;;;;17.52;11.88;;;24.90;99.90;;;;;;5074400;28;20107;-64
2022/07/30 02:24:36;;;;;;;18.65;12.30;;;24.90;99.90;;;;;;5074866;28;20047;-64
2022/07/30 02:27:15;;;;;;;18.83;12.57;;;25.00;99.90;;;;;;5074266;28;20483;-63
2022/07/30 02:29:43;;;;;;;18.25;12.80;;;24.90;99.90;;;;;;5074204;28;20134;-65
2022/07/30 02:32:13;;;;;;;21.67;13.07;;;24.90;99.90;;;;;;5074160;28;20510;-65
2022/07/30 02:34:41;;;;;;;16.73;13.15;;;25.00;99.90;;;;;;5072803;28;20024;-66
2022/07/30 02:37:11;;;;;;;18.75;12.38;;;25.00;99.90;;;;;;5074092;28;20425;-66
2022/07/30 02:39:38;;;;;;;20.92;13.48;;;24.90;99.90;;;;;;5074085;28;20078;-66
2022/07/30 02:42:06;;;;;;;17.50;12.73;;;24.80;99.90;;;;;;5073920;28;20020;-66
2022/07/30 02:44:34;;;;;;;17.70;12.23;;;24.90;99.90;;;;;;5072618;28;20362;-66
2022/07/30 02:47:02;;;;;;;19.52;13.85;;;24.90;99.90;;;;;;5073856;28;20029;-65
2022/07/30 02:49:30;;;;;;;20.02;13.65;;;24.90;99.90;;;;;;5073804;28;20024;-66
2022/07/30 02:51:57;;;;;;;18.40;11.55;;;24.80;99.90;;;;;;5073997;28;20024;-64
2022/07/30 02:54:26;;;;;;;16.63;12.32;;;24.90;99.90;;;;;;5072462;28;20071;-65
2022/07/30 02:56:53;;;;;;;20.05;11.93;;;24.90;99.90;;;;;;5073943;28;20054;-65
2022/07/30 02:59:21;;;;;;;19.92;13.50;;;25.00;99.90;;;;;;5073177;28;20020;-65
2022/07/30 03:01:47;;;;;;;16.67;12.35;;;;;;;;;;5073684;28;20048;-66
2022/07/30 03:04:14;;;;;;;19.90;13.65;;;;;;;;;;5073569;28;20032;-65
2022/07/30 03:06:41;;;;;;;16.98;13.07;;;;;;;;;;5073804;28;20361;-66
2022/07/30 03:09:09;;;;;;;19.00;14.52;;;;;;;;;;5073527;28;20078;-66
2022/07/30 03:11:35;;;;;;;18.00;13.18;;;;;;;;;;5073418;28;20036;-66
2022/07/30 03:14:02;;;;;;;17.83;13.82;;;;;;;;;;5073411;28;20461;-67
2022/07/30 03:16:29;;;;;;;15.20;13.10;;;;;;;;;;5073389;28;20362;-66
2022/07/30 03:18:57;;;;;;;18.45;13.80;;;;;;;;;;5072062;28;20484;-65
2022/07/30 03:21:25;;;;;;;16.05;13.80;;;;;;;;;;5073334;28;20024;-65
2022/07/30 03:23:52;;;;;;;19.17;13.20;;;;;;;;;;5071989;28;20495;-66
2022/07/30 03:26:20;;;;;;;17.48;13.52;;;;;;;;;;5073237;28;20105;-66
2022/07/30 03:28:47;;;;;;;20.88;16.20;;;;;;;;;;5073306;28;20029;-67
2022/07/30 03:31:14;;;;;;;19.13;12.95;;;;;;;;;;5071990;28;20350;-65
2022/07/30 03:33:40;;;;;;;20.00;13.98;;;;;;;;;;5073179;28;20020;-66
2022/07/30 03:36:08;;;;;;;14.27;12.75;;;;;;;;;;5073470;28;20059;-63
2022/07/30 03:38:38;;;;;;;23.30;15.73;;;;;;;;;;5073193;28;20029;-66
2022/07/30 03:41:06;;;;;;;18.25;14.05;;;;;;;;;;5071780;28;20115;-66
2022/07/30 03:43:32;;;;;;;19.00;13.27;;;;;;;;;;5073375;28;20059;-64
2022/07/30 03:45:59;;;;;;;23.63;13.15;;;;;;;;;;5073052;28;20032;-64
2022/07/30 03:48:25;;;;;;;26.05;14.85;;;;;;;;;;5073065;28;20461;-66
2022/07/30 03:50:52;;;;;;;19.67;13.60;;;;;;;;;;5072958;28;20044;-64
2022/07/30 03:53:18;;;;;;;17.15;13.45;;;;;;;;;;5072969;28;20442;-64
2022/07/30 03:55:45;;;;;;;21.00;14.27;;;;;;;;;;5072984;28;20025;-65
2022/07/30 03:58:11;;;;;;;20.13;14.07;;;;;;;;;;5072654;28;20385;-64
2022/07/30 04:00:38;;;;;;;19.80;12.90;;;;;;;;;;5072822;28;20439;-66
2022/07/30 04:03:05;;;;;;;19.77;14.25;;;;;;;;;;5072877;28;20028;-66
2022/07/30 04:05:31;;;;;;;20.05;15.57;;;;;;;;;;5073116;28;20025;-66
2022/07/30 04:07:57;;;;;;;28.15;16.08;;;;;;;;;;5072838;28;20170;-66
2022/07/30 04:10:23;;;;;;;21.83;16.23;;;;;;;;;;5072806;28;20037;-66
2022/07/30 04:12:49;;;;;;;18.20;14.95;;;;;;;;;;5075900;28;20074;-65
2022/07/30 04:15:15;;;;;;;25.38;17.13;;;;;;;;;;5076781;28;20108;-65
2022/07/30 04:17:47;;;;;;;18.15;14.15;;;;;;;;;;5076749;28;20028;-65
2022/07/30 04:20:16;;;;;;;22.38;14.05;;;;;;;;;;5076724;28;20024;-66
2022/07/30 04:22:42;;;;;;;25.42;15.27;;;;;;;;;;5076654;28;20047;-65
2022/07/30 04:25:08;;;;;;;27.98;15.50;;;;;;;;;;5076603;28;20021;-66
2022/07/30 04:27:35;;;;;;;21.65;13.63;;;;;;;;;;5076499;28;20024;-64
2022/07/30 04:30:02;;;;;;;22.35;15.82;;;;;;;;;;5076479;28;20033;-65
2022/07/30 04:32:28;;;;;;;22.65;14.43;;;;;;;;;;5076724;28;20028;-63
2022/07/30 04:34:55;;;;;;;23.63;16.67;;;;;;;;;;5076433;28;20024;-64
2022/07/30 04:37:23;;;;;;;25.10;15.38;;;;;;;;;;5076358;28;20031;-65
2022/07/30 04:39:52;;;;;;;30.48;16.83;;;;;;;;;;5076369;28;20028;-64
2022/07/30 04:42:19;;;;;;;28.25;15.15;;;;;;;;;;5076242;28;20031;-66
2022/07/30 04:44:45;;;;;;;44.47;16.73;;;;;;;;;;5075924;28;20540;-64
2022/07/30 04:47:11;;;;;;;23.75;13.95;;;;;;;;;;5076168;28;20020;-67
2022/07/30 04:49:38;;;;;;;25.10;14.85;;;;;;;;;;5075793;28;20095;-65
2022/07/30 04:52:05;;;;;;;23.35;14.25;;;;;;;;;;5076129;28;20052;-64
2022/07/30 04:54:43;;;;;;;29.05;13.90;;;;;;;;;;5076027;28;20093;-64
2022/07/30 04:57:10;;;;;;;25.42;16.13;;;;;;;;;;5075695;28;20409;-63
2022/07/30 04:59:36;;;;;;;25.08;16.70;;;;;;;;;;5075463;28;20033;-64
2022/07/30 05:02:03;;;;;;;20.23;16.52;;;;;;;;;;5075949;28;20020;-63
2022/07/30 05:04:31;;;;;;;17.67;13.73;;;;;;;;;;5074531;28;20028;-64
2022/07/30 05:06:58;;;;;;;23.10;15.77;;;25.00;99.90;;;;;;5075798;28;20017;-63
2022/07/30 05:09:25;;;;;;;26.92;15.30;;;25.00;99.90;;;;;;5075776;28;20032;-63
2022/07/30 05:11:53;;;;;;;22.67;15.88;;;25.00;99.90;;;;;;5075710;28;20063;-64
2022/07/30 05:14:19;;;;;;;21.58;17.55;;;25.00;99.90;;;;;;5075690;28;20036;-64
2022/07/30 05:16:45;;;;;;;19.00;13.52;;;24.80;99.90;;;;;;5075656;28;20044;-64
2022/07/30 05:19:12;;;;;;;19.38;16.23;;;25.00;99.90;;;;;;5075699;28;20457;-64
2022/07/30 05:21:37;;;;;;;22.83;16.13;;;25.00;99.90;;;;;;5075541;28;20038;-64
2022/07/30 05:24:04;;;;;;;20.13;14.77;;;24.90;99.90;;;;;;5075060;28;20104;-64
2022/07/30 05:26:30;;;;;;;18.77;14.45;;;24.80;99.90;;;;;;5075401;28;20063;-64
2022/07/30 05:28:55;;;;;;;22.70;14.52;;;24.90;99.90;;;;;;5074137;28;20064;-64
2022/07/30 05:31:23;;;;;;;24.08;16.77;;;25.10;99.90;;;;;;5075386;28;20042;-64
2022/07/30 05:33:49;;;;;;;17.83;15.10;;;25.10;99.90;;;;;;5075342;28;20021;-64
2022/07/30 05:36:15;;;;;;;18.00;13.90;;;25.40;99.90;;;;;;5075284;28;20035;-64
2022/07/30 05:38:40;;;;;;;20.98;14.55;;;25.30;99.90;;;;;;5073983;28;20428;-64
2022/07/30 05:41:06;;;;;;;18.92;14.50;;;25.30;99.90;;;;;;5075232;28;20426;-66
2022/07/30 05:43:32;;;;;;;17.40;14.13;;;25.40;99.90;;;;;;5075151;28;20029;-66
2022/07/30 05:45:58;;;;;;;17.17;14.05;;;25.50;99.90;;;;;;5075364;28;20062;-66
2022/07/30 05:48:25;;;;;;;22.10;15.13;;;25.50;99.90;;;;;;5075300;28;20822;-66
2022/07/30 05:50:51;;;;;;;25.38;17.45;;;25.50;99.90;;;;;;5075004;28;20412;-66
2022/07/30 05:53:17;;;;;;;24.08;17.75;;;25.60;99.90;;;;;;5074946;28;20017;-66
2022/07/30 05:55:42;;;;;;;24.77;18.23;;;25.70;99.90;;;;;;5074596;28;20033;-67
2022/07/30 05:58:08;;;;;;;29.08;18.10;;;25.50;99.90;;;;;;5073574;28;20028;-67
2022/07/30 06:00:34;;;;;;;19.85;16.60;;;25.50;99.90;;;;;;5074792;28;20048;-66
2022/07/30 06:03:00;;;;;;;18.02;14.68;;;25.50;99.90;;;;;;5073469;28;20035;-65
2022/07/30 06:05:27;;;;;;;30.40;17.00;;;25.70;99.90;;;;;;5073406;28;20028;-65
2022/07/30 06:07:53;;;;;;;19.55;14.43;;;25.70;99.90;;;;;;5074360;28;20445;-65
2022/07/30 06:10:19;;;;;;;41.40;18.60;;;25.80;99.90;;;;;;5073275;28;20037;-65
2022/07/30 06:12:45;;;;;;;52.00;17.73;;;25.90;99.90;;;;;;5074500;28;20028;-64
2022/07/30 06:15:11;;;;;;;45.75;18.23;;;26.00;99.90;;;;;;5073224;28;20376;-64
2022/07/30 06:17:42;;;;;;;36.28;18.67;;;25.90;99.90;;;;;;5073121;28;20513;-65
2022/07/30 06:20:09;;;;;;;30.50;16.17;;;25.90;99.90;;;;;;5074448;28;20028;-65
2022/07/30 06:22:34;;;;;;;47.78;19.17;;;26.00;99.90;;;;;;5074348;28;20040;-66
2022/07/30 06:25:00;;;;;;;28.50;17.80;;;25.90;99.90;;;;;;5073009;28;20025;-65
2022/07/30 06:27:26;;;;;;;35.67;15.48;;;25.90;99.90;;;;;;5072919;28;20119;-65
2022/07/30 06:29:52;;;;;;;39.95;18.25;;;25.90;99.90;;;;;;5072496;28;20040;-66
2022/07/30 06:32:18;;;;;;;23.02;16.80;;;25.90;99.90;;;;;;5074386;28;20384;-65
2022/07/30 06:34:44;;;;;;;24.73;16.95;;;25.90;99.90;;;;;;5073219;28;20492;-65
2022/07/30 06:37:10;;;;;;;23.60;16.33;;;26.00;99.90;;;;;;5072937;28;20423;-65
2022/07/30 06:39:36;;;;;;;23.52;16.27;;;26.00;99.90;;;;;;5073983;28;20032;-66
2022/07/30 06:42:02;;;;;;;30.13;17.33;;;26.00;99.90;;;;;;5073882;28;20090;-66
2022/07/30 06:44:28;;;;;;;22.13;16.15;;;26.10;99.90;;;;;;5072503;28;20491;-65
2022/07/30 06:46:54;;;;;;;25.80;16.55;;;26.10;99.90;;;;;;5073881;28;20095;-65
2022/07/30 06:49:19;;;;;;;21.33;16.45;;;26.30;99.90;;;;;;5072518;28;20047;-64
2022/07/30 06:51:45;;;;;;;24.27;16.15;;;26.40;99.90;;;;;;5073679;28;20366;-64
2022/07/30 06:54:11;;;;;;;20.23;15.75;;;26.50;99.90;;;;;;5073684;28;20024;-65
2022/07/30 06:56:37;;;;;;;20.20;15.60;;;26.50;99.90;;;;;;5073438;28;20032;-64
2022/07/30 06:59:03;;;;;;;20.92;14.68;;;26.80;99.90;;;;;;5073470;28;20029;-64
2022/07/30 07:01:29;;;;;;;22.48;14.73;;;26.80;99.90;;;;;;5073236;28;20413;-65
2022/07/30 07:03:56;;;;;;;24.98;15.07;;;26.90;99.90;;;;;;5073788;28;20083;-64
2022/07/30 07:06:21;;;;;;;23.00;15.18;;;27.10;99.90;;;;;;5072170;28;20033;-64
2022/07/30 07:08:47;;;;;;;28.02;14.93;;;27.10;99.90;;;;;;5073286;28;20031;-64
2022/07/30 07:11:13;;;;;;;17.77;14.57;;;27.10;99.90;;;;;;5073200;28;20043;-64
2022/07/30 07:13:39;;;;;;;18.15;14.20;;;27.10;99.90;;;;;;5073160;28;20430;-64
2022/07/30 07:16:05;;;;;;;17.77;14.93;;;27.20;99.90;;;;;;5073393;28;20036;-63
2022/07/30 07:18:30;;;;;;;20.92;14.50;;;27.20;99.90;;;;;;5073390;28;20025;-63
2022/07/30 07:20:56;;;;;;;24.52;15.75;;;27.30;99.90;;;;;;5073445;28;20115;-63
2022/07/30 07:23:22;;;;;;;22.33;16.02;;;27.40;99.90;;;;;;5073332;28;20028;-63
2022/07/30 07:25:48;;;;;;;21.88;14.75;;;27.40;99.90;;;;;;5070918;28;20028;-64
2022/07/30 07:28:14;;;;;;;17.23;13.40;;;27.40;99.90;;;;;;5071665;28;20024;-64
2022/07/30 07:30:40;;;;;;;15.00;13.40;;;27.30;99.90;;;;;;5072754;28;20473;-65
2022/07/30 07:33:06;;;;;;;15.88;14.07;;;27.30;99.90;;;;;;5071388;28;20389;-64
2022/07/30 07:35:32;;;;;;;14.82;13.23;;;27.30;99.90;;;;;;5070335;28;20021;-65
2022/07/30 07:37:58;;;;;;;20.65;14.20;;;27.30;99.90;;;;;;5068975;28;20117;-64
2022/07/30 07:40:24;;;;;;;17.38;13.30;;;27.40;99.90;;;;;;5071021;28;20060;-65
2022/07/30 07:42:50;;;;;;;17.85;13.20;;;27.50;99.90;;;;;;5072467;28;20023;-63
2022/07/30 07:45:16;;;;;;;16.63;13.75;;;27.60;99.90;;;;;;5072675;28;20107;-65
2022/07/30 07:47:47;;;;;;;18.58;12.13;;;27.60;99.90;;;;;;5072470;28;20036;-65
2022/07/30 07:50:17;;;;;;;15.48;12.82;;;27.60;99.90;;;;;;5072839;28;20029;-64
2022/07/30 07:52:43;;;;;;;14.05;12.27;;;27.70;99.90;;;;;;5072846;28;20036;-65
2022/07/30 07:55:10;;;;;;;16.60;12.30;;;27.70;99.90;;;;;;5071462;28;20025;-64
2022/07/30 07:57:44;;;;;;;15.43;12.75;;;27.80;99.90;;;;;;5072682;28;20032;-64
2022/07/30 08:00:16;;;;;;;18.73;11.95;;;27.90;99.90;;;;;;5072454;28;20154;-64
2022/07/30 08:02:43;;;;;;;19.40;12.63;;;28.10;99.90;;;;;;5072691;28;20469;-64
2022/07/30 08:05:11;;;;;;;15.50;12.73;;;28.30;99.90;;;;;;5072644;28;20079;-65
2022/07/30 08:07:38;;;;;;;19.98;12.57;;;28.40;99.90;;;;;;5072538;28;20055;-64
2022/07/30 08:10:05;;;;;;;22.55;13.40;;;27.50;99.90;;;;;;5071239;28;20075;-65
2022/07/30 08:12:31;;;;;;;23.17;13.70;;;28.60;99.90;;;;;;5070632;28;20031;-63
2022/07/30 08:14:57;;;;;;;23.75;12.98;;;;;;;;;;5071264;28;20055;-64
2022/07/30 08:17:23;;;;;;;33.97;13.38;;;;;;;;;;5072829;28;20074;-62
2022/07/30 08:19:50;;;;;;;25.90;11.57;;;;;;;;;;5072027;28;20086;-62
2022/07/30 08:22:16;;;;;;;17.48;11.55;;;;;;;;;;5072509;28;20024;-63
2022/07/30 08:24:42;;;;;;;16.20;12.02;;;;;;;;;;5071173;28;20019;-63
2022/07/30 08:27:08;;;;;;;23.45;12.55;;;29.80;99.90;;;;;;5070588;28;20397;-65
2022/07/30 08:29:34;;;;;;;23.80;12.70;;;30.00;99.90;;;;;;5069452;28;20016;-69
2022/07/30 08:32:02;;;;;;;39.28;13.50;;;30.00;99.90;;;;;;5071863;28;20040;-63
2022/07/30 08:34:28;;;;;;;27.10;12.93;;;;;;;;;;5071086;28;20021;-63
2022/07/30 08:36:54;;;;;;;17.05;11.77;;;;;;;;;;5070969;28;20017;-63
2022/07/30 08:39:20;;;;;;;15.38;10.70;;;30.20;98.10;;;;;;5072507;28;20158;-63
2022/07/30 08:41:47;;;;;;;13.38;10.65;;;29.90;96.90;;;;;;5070883;28;20040;-63
2022/07/30 08:44:17;;;;;;;13.88;9.60;;;30.00;96.80;;;;;;5070882;28;20115;-63
2022/07/30 08:46:46;;;;;;;18.02;10.30;;;30.20;95.90;;;;;;5071979;28;20693;-63
2022/07/30 08:49:13;;;;;;;11.15;10.00;;;;;;;;;;5072173;28;20033;-63
2022/07/30 08:51:39;;;;;;;14.02;9.90;;;;;;;;;;5071901;28;20029;-64
2022/07/30 08:54:05;;;;;;;13.35;9.82;;;;;;;;;;5072204;28;20040;-64
2022/07/30 08:56:32;;;;;;;16.80;10.23;;;;;;;;;;5072109;28;20016;-66
2022/07/30 08:59:01;;;;;;;14.65;10.43;;;;;;;;;;5074983;28;20100;-63
2022/07/30 09:01:28;;;;;;;15.35;10.25;;;;;;;;;;5075464;28;20095;-63
2022/07/30 09:03:54;;;;;;;16.13;9.68;;;;;;;;;;5075470;28;20029;-63
2022/07/30 09:06:19;;;;;;;14.20;10.40;;;31.60;93.70;;;;;;5076140;28;20028;-63
2022/07/30 09:08:45;;;;;;;13.02;10.00;;;31.60;94.10;;;;;;5074372;28;20487;-63
2022/07/30 09:11:11;;;;;;;13.55;10.23;;;31.60;94.00;;;;;;5075358;28;20040;-64
2022/07/30 09:13:41;;;;;;;14.32;9.90;;;31.70;94.30;;;;;;5074033;28;20024;-63
2022/07/30 09:16:17;;;;;;;13.27;10.60;;;31.70;94.00;;;;;;5075728;28;20025;-65
2022/07/30 09:18:43;;;;;;;16.33;9.60;;;;;;;;;;5074460;28;20430;-64
2022/07/30 09:21:15;;;;;;;16.23;10.05;;;;;;;;;;5074312;28;20040;-65
2022/07/30 09:23:54;;;;;;;15.13;8.65;;;;;;;;;;5075517;28;20111;-66
2022/07/30 09:26:20;;;;;;;14.18;9.32;;;;;;;;;;5074173;28;20036;-64
2022/07/30 09:28:46;;;;;;;88.57;13.70;;;31.90;93.00;;;;;;5075413;28;20028;-63
2022/07/30 09:31:12;;;;;;;15.13;9.70;;;;;;;;;;5075575;28;20033;-64
2022/07/30 09:33:42;;;;;;;15.63;9.90;;;;;;;;;;5075660;28;20024;-65
2022/07/30 09:36:10;;;;;;;12.53;10.30;;;;;;;;;;5075248;28;20029;-64
2022/07/30 09:38:47;;;;;;;13.30;9.57;;;;;;;;;;5075208;28;20237;-64
2022/07/30 09:41:14;;;;;;;12.20;9.77;;;;;;;;;;5075303;28;20025;-64
2022/07/30 09:43:47;;;;;;;11.88;9.80;;;;;;;;;;5075160;28;20485;-65
2022/07/30 09:46:14;;;;;;;13.30;10.00;;;32.40;91.70;;;;;;5075391;28;20025;-64
2022/07/30 09:48:41;;;;;;;17.77;10.00;;;32.60;91.90;;;;;;5074937;28;20024;-63
2022/07/30 09:51:06;;;;;;;14.75;9.20;;;32.70;91.10;;;;;;5075004;28;20090;-64
2022/07/30 09:53:33;;;;;;;18.67;9.35;;;;;;;;;;5075016;28;20024;-64
2022/07/30 09:55:59;;;;;;;10.95;8.93;;;34.00;95.40;;;;;;5074461;28;20125;-64
2022/07/30 09:58:40;;;;;;;13.70;9.07;;;33.20;91.30;;;;;;5074847;28;20040;-64
2022/07/30 10:01:06;;;;;;;;;;;33.30;90.80;;;;;;5075314;28;20049;-64
2022/07/30 10:03:32;;;;;;;12.18;9.20;;;32.90;90.60;;;;;;5074271;28;19915;-66
2022/07/30 10:05:59;;;;;;;13.95;9.23;;;33.20;91.20;;;;;;5074729;28;20469;-63
2022/07/30 10:08:49;;;;;;;19.23;9.40;;;33.30;90.70;;;;;;5074680;28;20037;-64
2022/07/30 10:11:17;;;;;;;14.75;9.40;;;;;;;;;;5074533;28;20071;-64
2022/07/30 10:13:43;;;;;;;12.10;8.32;;;33.40;90.20;;;;;;5073222;28;20048;-64
2022/07/30 10:16:09;;;;;;;26.23;10.00;;;33.50;90.00;;;;;;5074407;28;20025;-63
2022/07/30 10:18:36;;;;;;;15.18;7.43;;;33.30;89.80;;;;;;5074507;28;20107;-64
2022/07/30 10:21:03;;;;;;;10.77;7.22;;;33.40;89.80;;;;;;5072910;28;20198;-64
2022/07/30 10:23:31;;;;;;;12.95;7.75;;;33.40;90.00;;;;;;5073705;28;20035;-64
2022/07/30 10:25:58;;;;;;;8.90;7.80;;;33.80;90.00;;;;;;5074103;28;20087;-67
2022/07/30 10:28:25;;;;;;;11.35;6.85;;;33.80;90.10;;;;;;5074113;28;20047;-67
2022/07/30 10:30:56;;;;;;;11.02;6.85;;;34.00;88.60;;;;;;5070060;28;20039;-67
2022/07/30 10:33:25;;;;;;;6.95;6.28;;;34.10;87.30;;;;;;5074211;28;20055;-67
2022/07/30 10:35:51;;;;;;;10.65;6.53;;;;;;;;;;5073952;28;20029;-68
2022/07/30 10:38:21;;;;;;;8.80;6.68;;;34.50;85.90;;;;;;5073818;28;20050;-69
2022/07/30 10:40:52;;;;;;;13.90;6.80;;;34.40;84.20;;;;;;5073767;28;20024;-67
2022/07/30 10:43:37;;;;;;;10.80;6.20;;;;;;;;;;5072587;28;20037;-66
2022/07/30 10:46:05;;;;;;;10.20;6.30;;;35.30;82.50;;;;;;5074142;28;20067;-68
2022/07/30 10:48:35;;;;;;;11.55;6.00;;;;;;;;;;5073793;28;20035;-70
2022/07/30 10:51:01;;;;;;;11.98;6.43;;;35.80;81.40;;;;;;5073224;28;20029;-66
2022/07/30 10:53:41;;;;;;;11.50;6.38;;;36.20;80.80;;;;;;5074054;28;20039;-67
2022/07/30 10:56:19;;;;;;;10.65;6.53;;;35.80;81.40;;;;;;5073400;28;20465;-69
2022/07/30 10:59:01;;;;;;;8.50;6.50;;;35.80;80.20;;;;;;5073317;28;20392;-67
2022/07/30 11:01:47;;;;;;;9.98;6.45;;;;;;;;;;5073604;28;20060;-65
2022/07/30 11:04:24;;;;;;;9.90;6.10;;;36.20;80.90;;;;;;5052242;28;20056;-65
2022/07/30 11:06:51;;;;;;;7.57;6.50;;;35.90;80.90;;;;;;5073181;28;20039;-65
2022/07/30 11:09:38;;;;;;;13.00;5.50;;;35.40;78.90;;;;;;5072727;28;20029;-66
2022/07/30 11:12:06;;;;;;;7.55;5.70;;;35.60;80.00;;;;;;5072094;28;20087;-65
2022/07/30 11:14:47;;;;;;;9.25;5.30;;;;;;;;;;5073094;28;20025;-66
2022/07/30 11:17:14;;;;;;;32.63;7.38;;;;;;;;;;5073274;28;20103;-65
2022/07/30 11:20:05;;;;;;;8.57;4.85;;;36.80;76.70;;;;;;5072197;28;20870;-65
2022/07/30 11:22:43;;;;;;;7.93;5.88;;;36.80;76.80;;;;;;5073341;28;20028;-65
2022/07/30 11:25:29;;;;;;;10.10;5.55;;;36.70;76.50;;;;;;5071583;28;20484;-67
2022/07/30 11:27:56;;;;;;;10.48;6.07;;;37.00;76.00;;;;;;5073136;28;20453;-66
2022/07/30 11:30:21;;;;;;;17.08;7.22;;;37.40;75.70;;;;;;5070955;28;20032;-67
2022/07/30 11:32:49;;;;;;;10.10;5.10;;;37.50;75.10;;;;;;5072694;28;20036;-67
2022/07/30 11:35:20;;;;;;;8.80;4.95;;;37.30;74.00;;;;;;5072945;28;20028;-68
2022/07/30 11:38:00;;;;;;;;;;;37.10;75.20;;;;;;5073041;28;20032;-67
2022/07/30 11:40:31;;;;;;;12.45;5.50;;;38.20;73.70;;;;;;5073073;28;19961;-68
2022/07/30 11:43:18;;;;;;;14.48;5.32;;;37.90;72.40;;;;;;5072692;28;20029;-67
2022/07/30 11:45:48;;;;;;;13.00;4.88;;;;;;;;;;5071568;28;20029;-68
2022/07/30 11:48:16;;;;;;;13.73;4.88;;;37.20;70.60;;;;;;5072193;28;20020;-67
2022/07/30 11:50:44;;;;;;;11.77;4.65;;;37.40;70.90;;;;;;5072533;28;20033;-67
2022/07/30 11:53:18;;;;;;;7.70;4.88;;;37.30;71.50;;;;;;5071318;28;20035;-66
2022/07/30 11:55:54;;;;;;;7.20;4.60;;;38.40;68.70;;;;;;5072843;28;20075;-66
2022/07/30 11:58:28;;;;;;;13.13;4.85;;;38.60;68.00;;;;;;5072626;28;20021;-65
2022/07/30 12:00:56;;;;;;;8.93;4.63;;;38.30;69.00;;;;;;5071749;28;20105;-66
2022/07/30 12:03:25;;;;;;;5.53;4.20;;;;;;;;;;5072478;28;20028;-66
2022/07/30 12:05:51;;;;;;;5.85;4.72;;;39.00;67.00;;;;;;5071919;28;20431;-67
2022/07/30 12:08:17;;;;;;;4.60;4.18;;;39.80;65.80;;;;;;5072336;28;20103;-67
2022/07/30 12:10:56;;;;;;;12.90;4.07;;;39.80;66.40;;;;;;5070952;28;20473;-65
2022/07/30 12:13:22;;;;;;;8.77;5.18;;;;;;;;;;5072612;28;20107;-65
2022/07/30 12:15:48;;;;;;;7.72;4.55;;;40.40;64.50;;;;;;5072215;28;20020;-67
2022/07/30 12:18:23;;;;;;;7.70;4.68;;;;;;;;;;5071844;28;20035;-66
2022/07/30 12:21:11;;;;;;;8.90;4.95;;;42.00;63.20;;;;;;5072369;28;20028;-68
2022/07/30 12:23:42;;;;;;;15.27;4.95;;;39.70;62.70;;;;;;5071114;28;20083;-66
2022/07/30 12:26:08;;;;;;;;;;;38.40;63.20;;;;;;5072611;28;20411;-67
2022/07/30 12:28:35;;;;;;;6.53;4.78;;;40.00;63.60;;;;;;5072337;28;19904;-66
2022/07/30 12:31:04;;;;;;;10.02;4.93;;;41.50;69.90;;;;;;5070923;28;20040;-66
2022/07/30 12:33:30;;;;;;;8.40;4.80;;;;;;;;;;5073520;28;20031;-67
2022/07/30 12:35:58;;;;;;;5.40;4.45;;;41.90;62.10;;;;;;5076188;28;20029;-67
2022/07/30 12:38:26;;;;;;;9.95;5.47;;;40.90;61.90;;;;;;5075813;28;20029;-70
2022/07/30 12:40:57;;;;;;;8.02;4.35;;;;;;;;;;5074608;28;20499;-70
2022/07/30 12:43:49;;;;;;;5.65;4.45;;;38.10;62.50;;;;;;5074806;28;20028;-71
2022/07/30 12:46:24;;;;;;;5.55;4.60;;;36.80;64.90;;;;;;5074696;28;20063;-69
2022/07/30 12:48:54;;;;;;;10.30;4.55;;;;;;;;;;5074121;28;20031;-68
2022/07/30 12:51:23;;;;;;;5.72;4.35;;;35.80;67.60;;;;;;5074471;28;20075;-69
2022/07/30 12:53:51;;;;;;;5.65;4.38;;;35.00;68.70;;;;;;5075883;28;20037;-66
2022/07/30 12:56:19;;;;;;;7.00;4.72;;;;;;;;;;5075604;28;20361;-66
2022/07/30 12:58:45;;;;;;;6.38;4.53;;;;;;;;;;5075639;28;20029;-68
2022/07/30 13:01:12;;;;;;;4.75;3.95;;;;;;;;;;5075557;28;20086;-67
2022/07/30 13:03:39;;;;;;;4.72;4.20;;;33.20;71.20;;;;;;5075763;28;20025;-69
2022/07/30 13:06:11;;;;;;;10.23;5.18;;;;;;;;;;5075423;28;20023;-66
2022/07/30 13:08:53;;;;;;;13.05;7.47;;;33.00;73.10;;;;;;5075502;28;20054;-66
2022/07/30 13:11:22;;;;;;;23.85;10.52;;;32.90;73.90;;;;;;5075637;28;20047;-67
2022/07/30 13:13:48;;;;;;;19.10;9.18;;;33.20;74.00;;;;;;5075765;28;20819;-66